createdAt,value
2023-03-06T00:00:56.502Z,4.40
2023-03-06T00:03:27.742Z,4.73
2023-03-06T00:05:57.982Z,5.30
2023-03-06T00:08:27.676Z,4.97
2023-03-06T00:10:56.178Z,4.40
2023-03-06T00:13:24.499Z,5.53
2023-03-06T00:15:52.461Z,5.47
2023-03-06T00:18:20.468Z,5.33
2023-03-06T00:20:48.446Z,5.67
2023-03-06T00:23:17.770Z,5.37
2023-03-06T00:25:46.626Z,5.40
2023-03-06T00:28:15.682Z,5.90
2023-03-06T00:30:44.042Z,5.97
2023-03-06T00:33:12.140Z,5.10
2023-03-06T00:35:40.264Z,5.03
2023-03-06T00:38:08.307Z,5.00
2023-03-06T00:40:37.574Z,4.87
2023-03-06T00:43:05.512Z,4.90
2023-03-06T00:45:33.541Z,4.80
2023-03-06T00:48:01.582Z,4.50
2023-03-06T00:50:29.723Z,4.80
2023-03-06T00:52:57.672Z,4.47
2023-03-06T00:55:25.547Z,4.57
2023-03-06T00:57:54.795Z,4.40
2023-03-06T01:00:22.876Z,4.70
2023-03-06T01:02:50.916Z,5.60
2023-03-06T01:05:18.950Z,5.27
2023-03-06T01:07:46.849Z,5.43
2023-03-06T01:10:15.021Z,4.27
2023-03-06T01:12:43.024Z,5.97
2023-03-06T01:15:14.724Z,6.07
2023-03-06T01:17:42.649Z,6.03
2023-03-06T01:20:14.650Z,5.20
2023-03-06T01:22:42.536Z,5.83
2023-03-06T01:25:11.104Z,5.80
2023-03-06T01:27:39.037Z,5.93
2023-03-06T01:30:08.145Z,5.93
2023-03-06T01:32:37.413Z,5.97
2023-03-06T01:35:06.360Z,6.37
2023-03-06T01:37:36.098Z,6.20
2023-03-06T01:40:04.392Z,6.50
2023-03-06T01:42:32.342Z,6.53
2023-03-06T01:45:02.104Z,6.57
2023-03-06T01:47:30.121Z,7.27
2023-03-06T01:50:01.625Z,6.77
2023-03-06T01:52:32.262Z,6.93
2023-03-06T01:55:03.671Z,7.73
2023-03-06T01:57:35.060Z,8.13
2023-03-06T02:00:06.637Z,8.40
2023-03-06T02:02:34.798Z,7.90
2023-03-06T02:05:06.225Z,8.47
2023-03-06T02:07:35.501Z,8.27
2023-03-06T02:10:03.391Z,8.60
2023-03-06T02:12:31.844Z,9.17
2023-03-06T02:14:59.980Z,9.60
2023-03-06T02:17:28.862Z,8.43
2023-03-06T02:20:04.015Z,9.50
2023-03-06T02:22:38.529Z,9.77
2023-03-06T02:25:12.244Z,9.80
2023-03-06T02:27:42.090Z,10.17
2023-03-06T02:30:11.892Z,9.50
2023-03-06T02:32:39.783Z,10.20
2023-03-06T02:35:14.698Z,9.43
2023-03-06T02:37:42.649Z,10.40
2023-03-06T02:40:14.393Z,9.73
2023-03-06T02:42:48.903Z,9.73
2023-03-06T02:45:21.325Z,9.77
2023-03-06T02:47:49.252Z,9.53
2023-03-06T02:50:17.664Z,10.53
2023-03-06T02:52:45.577Z,10.47
2023-03-06T02:55:13.542Z,10.37
2023-03-06T02:57:41.474Z,11.37
2023-03-06T03:00:13.057Z,10.20
2023-03-06T03:02:41.163Z,11.07
2023-03-06T03:05:10.066Z,10.10
2023-03-06T03:07:38.228Z,11.23
2023-03-06T03:10:08.445Z,10.17
2023-03-06T03:12:36.425Z,10.93
2023-03-06T03:15:04.705Z,10.83
2023-03-06T03:17:36.943Z,10.57
2023-03-06T03:20:05.980Z,10.87
2023-03-06T03:22:34.022Z,10.67
2023-03-06T03:25:02.016Z,11.23
2023-03-06T03:27:30.003Z,10.47
2023-03-06T03:29:58.802Z,10.37
2023-03-06T03:32:27.471Z,10.83
2023-03-06T03:34:57.753Z,10.93
2023-03-06T03:37:25.713Z,11.60
2023-03-06T03:39:53.808Z,11.03
2023-03-06T03:42:21.785Z,10.43
2023-03-06T03:44:49.804Z,11.60
2023-03-06T03:47:17.797Z,11.67
2023-03-06T03:49:45.808Z,11.90
2023-03-06T03:52:15.041Z,11.53
2023-03-06T03:54:44.468Z,12.63
2023-03-06T03:57:12.440Z,13.57
2023-03-06T03:59:40.498Z,12.27
2023-03-06T04:02:08.564Z,12.23
2023-03-06T04:04:36.566Z,13.03
2023-03-06T04:07:04.992Z,12.97
2023-03-06T04:09:34.275Z,14.17
2023-03-06T04:12:02.216Z,13.23
2023-03-06T04:14:30.188Z,13.73
2023-03-06T04:16:59.493Z,13.60
2023-03-06T04:19:27.473Z,14.00
2023-03-06T04:21:55.299Z,12.87
2023-03-06T04:24:23.217Z,13.30
2023-03-06T04:26:52.614Z,12.90
2023-03-06T04:29:20.479Z,13.33
2023-03-06T04:31:48.435Z,13.13
2023-03-06T04:34:16.295Z,12.63
2023-03-06T04:36:45.317Z,12.43
2023-03-06T04:39:14.105Z,12.73
2023-03-06T04:41:42.311Z,12.47
2023-03-06T04:44:11.720Z,11.90
2023-03-06T04:46:39.594Z,14.93
2023-03-06T04:49:07.577Z,12.87
2023-03-06T04:51:36.758Z,12.83
2023-03-06T04:54:06.465Z,13.73
2023-03-06T04:56:34.896Z,13.63
2023-03-06T04:59:04.170Z,13.37
2023-03-06T05:01:33.378Z,13.97
2023-03-06T05:04:01.229Z,14.07
2023-03-06T05:06:29.087Z,13.93
2023-03-06T05:08:57.112Z,13.80
2023-03-06T05:11:25.096Z,15.03
2023-03-06T05:13:53.003Z,14.07
2023-03-06T05:16:20.965Z,15.07
2023-03-06T05:18:50.732Z,13.63
2023-03-06T05:21:18.740Z,14.87
2023-03-06T05:23:47.518Z,15.53
2023-03-06T05:26:16.271Z,15.20
2023-03-06T05:28:44.702Z,14.87
2023-03-06T05:31:12.636Z,14.17
2023-03-06T05:33:40.633Z,14.90
2023-03-06T05:36:10.825Z,16.17
2023-03-06T05:38:38.786Z,14.23
2023-03-06T05:41:06.781Z,15.53
2023-03-06T05:43:34.687Z,14.33
2023-03-06T05:46:03.489Z,15.20
2023-03-06T05:48:31.511Z,15.87
2023-03-06T05:51:00.421Z,15.20
2023-03-06T05:53:30.000Z,15.37
2023-03-06T05:55:59.064Z,16.07
2023-03-06T05:58:27.311Z,15.27
2023-03-06T06:00:55.232Z,14.97
2023-03-06T06:03:23.508Z,15.57
2023-03-06T06:05:52.354Z,14.97
2023-03-06T06:08:21.428Z,15.20
2023-03-06T06:10:53.298Z,14.37
2023-03-06T06:13:21.403Z,15.27
2023-03-06T06:15:50.418Z,15.70
2023-03-06T06:18:18.336Z,15.90
2023-03-06T06:20:46.191Z,16.87
2023-03-06T06:23:14.282Z,16.10
2023-03-06T06:25:42.536Z,16.20
2023-03-06T06:28:12.365Z,16.37
2023-03-06T06:30:40.264Z,16.80
2023-03-06T06:33:08.109Z,17.27
2023-03-06T06:35:37.566Z,16.43
2023-03-06T06:38:05.587Z,16.80
2023-03-06T06:40:33.482Z,16.37
2023-03-06T06:43:01.373Z,17.90
2023-03-06T06:45:30.728Z,16.97
2023-03-06T06:47:58.804Z,16.13
2023-03-06T06:50:26.966Z,16.60
2023-03-06T06:52:55.001Z,15.10
2023-03-06T06:55:22.896Z,17.00
2023-03-06T06:57:50.769Z,15.30
2023-03-06T07:00:20.009Z,15.07
2023-03-06T07:02:51.200Z,16.00
2023-03-06T07:05:21.110Z,14.70
2023-03-06T07:07:51.270Z,16.67
2023-03-06T07:10:20.743Z,16.00
2023-03-06T07:12:49.059Z,15.43
2023-03-06T07:15:17.984Z,15.10
2023-03-06T07:17:50.062Z,15.30
2023-03-06T07:20:20.882Z,15.80
2023-03-06T07:22:51.667Z,14.73
2023-03-06T07:25:20.687Z,15.13
2023-03-06T07:27:53.423Z,16.20
2023-03-06T07:30:22.850Z,15.87
2023-03-06T07:32:54.226Z,16.00
2023-03-06T07:35:24.219Z,17.40
2023-03-06T07:37:52.214Z,16.53
2023-03-06T07:40:20.899Z,17.30
2023-03-06T07:42:49.002Z,18.03
2023-03-06T07:45:17.381Z,17.70
2023-03-06T07:47:45.329Z,16.70
2023-03-06T07:50:13.574Z,16.47
2023-03-06T07:52:42.971Z,16.47
2023-03-06T07:55:11.859Z,16.97
2023-03-06T07:57:40.084Z,15.43
2023-03-06T08:00:11.360Z,14.73
2023-03-06T08:02:39.332Z,16.70
2023-03-06T08:05:08.913Z,15.83
2023-03-06T08:07:36.979Z,16.03
2023-03-06T08:10:07.236Z,16.37
2023-03-06T08:12:35.106Z,17.30
2023-03-06T08:15:03.482Z,17.40
2023-03-06T08:17:31.389Z,16.60
2023-03-06T08:19:59.399Z,17.00
2023-03-06T08:22:27.391Z,17.57
2023-03-06T08:24:56.339Z,18.70
2023-03-06T08:27:25.705Z,18.43
2023-03-06T08:29:53.650Z,18.13
2023-03-06T08:32:21.680Z,17.87
2023-03-06T08:34:49.629Z,18.53
2023-03-06T08:37:17.536Z,17.97
2023-03-06T08:39:45.462Z,18.70
2023-03-06T08:42:13.747Z,18.33
2023-03-06T08:44:43.221Z,19.03
2023-03-06T08:47:11.164Z,18.07
2023-03-06T08:49:39.729Z,15.67
2023-03-06T08:52:08.314Z,16.37
2023-03-06T08:54:36.699Z,16.17
2023-03-06T08:57:04.761Z,14.37
2023-03-06T08:59:32.696Z,12.57
2023-03-06T09:02:05.348Z,11.87
2023-03-06T09:04:33.412Z,11.50
2023-03-06T09:07:02.306Z,12.03
2023-03-06T09:09:32.839Z,10.87
2023-03-06T09:12:00.740Z,11.27
2023-03-06T09:14:28.728Z,9.77
2023-03-06T09:16:56.801Z,9.70
2023-03-06T09:19:26.041Z,10.23
2023-03-06T09:21:54.069Z,10.37
2023-03-06T09:24:22.112Z,10.20
2023-03-06T09:26:51.596Z,10.77
2023-03-06T09:29:19.759Z,10.80
2023-03-06T09:31:47.687Z,10.87
2023-03-06T09:34:15.765Z,10.50
2023-03-06T09:36:56.652Z,10.30
2023-03-06T09:39:27.177Z,10.53
2023-03-06T09:41:56.729Z,11.47
2023-03-06T09:44:27.744Z,12.17
2023-03-06T09:47:10.933Z,12.07
2023-03-06T09:49:47.246Z,11.73
2023-03-06T09:52:31.745Z,12.43
2023-03-06T09:55:03.926Z,12.53
2023-03-06T09:57:36.259Z,13.70
2023-03-06T10:00:11.689Z,12.83
2023-03-06T10:02:44.205Z,12.63
2023-03-06T10:05:18.728Z,13.53
2023-03-06T10:07:53.925Z,12.63
2023-03-06T10:10:25.436Z,13.60
2023-03-06T10:13:04.030Z,12.20
2023-03-06T10:15:36.102Z,11.30
2023-03-06T10:18:04.922Z,12.37
2023-03-06T10:20:38.378Z,12.13
2023-03-06T10:23:30.175Z,11.90
2023-03-06T10:26:02.346Z,11.33
2023-03-06T10:28:37.028Z,11.47
2023-03-06T10:31:12.067Z,11.40
2023-03-06T10:33:53.255Z,12.10
2023-03-06T10:36:25.415Z,11.73
2023-03-06T10:38:56.200Z,10.63
2023-03-06T10:41:27.565Z,12.60
2023-03-06T10:44:24.666Z,11.17
2023-03-06T10:46:55.654Z,12.03
2023-03-06T10:49:30.962Z,12.07
2023-03-06T10:52:01.939Z,12.07
2023-03-06T10:54:33.400Z,11.10
2023-03-06T10:57:20.044Z,13.03
2023-03-06T10:59:55.786Z,12.17
2023-03-06T11:02:31.619Z,11.87
2023-03-06T11:05:01.303Z,10.67
2023-03-06T11:07:30.591Z,11.80
2023-03-06T11:10:17.865Z,11.57
2023-03-06T11:12:58.555Z,11.53
2023-03-06T11:15:27.358Z,10.30
2023-03-06T11:17:59.396Z,10.27
2023-03-06T11:20:41.514Z,10.70
2023-03-06T11:23:19.767Z,10.17
2023-03-06T11:25:53.270Z,11.13
2023-03-06T11:28:26.162Z,9.83
2023-03-06T11:30:57.630Z,10.90
2023-03-06T11:33:31.707Z,10.53
2023-03-06T11:36:05.408Z,10.57
2023-03-06T11:38:41.319Z,10.03
2023-03-06T11:41:20.209Z,10.37
2023-03-06T11:43:55.960Z,10.57
2023-03-06T11:46:29.244Z,11.67
2023-03-06T11:49:02.781Z,11.43
2023-03-06T11:51:35.663Z,9.53
2023-03-06T11:54:04.001Z,10.57
2023-03-06T11:56:43.744Z,10.20
2023-03-06T11:59:33.423Z,9.77
2023-03-06T12:02:15.802Z,9.67
2023-03-06T12:04:52.556Z,10.70
2023-03-06T12:07:30.239Z,10.70
2023-03-06T12:10:09.911Z,10.30
2023-03-06T12:13:12.051Z,10.33
2023-03-06T12:16:00.228Z,10.23
2023-03-06T12:18:39.116Z,10.90
2023-03-06T12:21:14.773Z,11.00
2023-03-06T12:24:04.623Z,9.27
2023-03-06T12:27:01.679Z,10.20
2023-03-06T12:29:51.270Z,9.23
2023-03-06T12:32:31.753Z,8.77
2023-03-06T12:35:14.137Z,8.90
2023-03-06T12:37:53.475Z,8.30
2023-03-06T12:40:51.821Z,7.90
2023-03-06T12:43:53.606Z,7.40
2023-03-06T12:46:25.233Z,8.40
2023-03-06T12:49:12.400Z,7.43
2023-03-06T12:51:44.335Z,7.47
2023-03-06T12:54:15.080Z,6.90
2023-03-06T12:56:43.942Z,6.77
2023-03-06T12:59:44.485Z,6.40
2023-03-06T13:03:00.444Z,7.73
2023-03-06T13:05:43.342Z,7.10
2023-03-06T13:08:34.170Z,6.57
2023-03-06T13:11:37.999Z,6.20
2023-03-06T13:14:23.642Z,6.40
2023-03-06T13:16:51.757Z,7.03
2023-03-06T13:19:22.431Z,7.40
2023-03-06T13:22:16.526Z,6.97
2023-03-06T13:24:45.458Z,6.87
2023-03-06T13:27:33.746Z,5.73
2023-03-06T13:30:23.153Z,5.77
2023-03-06T13:32:53.840Z,5.63
2023-03-06T13:35:52.426Z,6.10
2023-03-06T13:38:37.257Z,5.57
2023-03-06T13:41:28.235Z,5.80
2023-03-06T13:43:57.998Z,6.17
2023-03-06T13:46:30.084Z,5.77
2023-03-06T13:49:07.038Z,6.13
2023-03-06T13:51:37.538Z,7.00
2023-03-06T13:54:26.578Z,7.03
2023-03-06T13:57:33.180Z,6.23
2023-03-06T14:00:38.536Z,5.83
2023-03-06T14:03:37.884Z,6.40
2023-03-06T14:06:40.664Z,6.00
2023-03-06T14:09:20.125Z,6.57
2023-03-06T14:11:52.554Z,6.83
2023-03-06T14:14:24.885Z,6.23
2023-03-06T14:16:54.128Z,6.30
2023-03-06T14:19:22.706Z,7.33
2023-03-06T14:21:57.886Z,6.90
2023-03-06T14:24:34.620Z,6.93
2023-03-06T14:27:02.588Z,7.93
2023-03-06T14:29:31.075Z,7.27
2023-03-06T14:32:00.269Z,8.03
2023-03-06T14:34:29.933Z,8.47
2023-03-06T14:37:01.055Z,8.13
2023-03-06T14:39:35.123Z,8.83
2023-03-06T14:42:07.513Z,7.50
2023-03-06T14:44:35.591Z,7.00
2023-03-06T14:47:23.823Z,7.50
2023-03-06T14:50:19.407Z,7.37
2023-03-06T14:52:47.611Z,8.50
2023-03-06T14:55:19.893Z,8.37
2023-03-06T14:57:51.279Z,8.40
2023-03-06T15:00:22.232Z,8.27
2023-03-06T15:02:52.424Z,8.23
2023-03-06T15:05:23.629Z,8.77
2023-03-06T15:07:53.782Z,8.37
2023-03-06T15:10:26.174Z,8.13
2023-03-06T15:12:54.488Z,8.53
2023-03-06T15:15:28.808Z,8.33
2023-03-06T15:17:56.712Z,8.17
2023-03-06T15:20:47.154Z,8.73
2023-03-06T15:23:22.837Z,8.90
2023-03-06T15:25:57.161Z,8.33
2023-03-06T15:28:29.514Z,9.07
2023-03-06T15:31:19.466Z,8.70
2023-03-06T15:34:02.565Z,7.93
2023-03-06T15:36:32.664Z,8.83
2023-03-06T15:39:00.869Z,8.40
2023-03-06T15:41:34.635Z,9.50
2023-03-06T15:44:04.515Z,9.60
2023-03-06T15:46:32.415Z,9.50
2023-03-06T15:49:03.212Z,9.70
2023-03-06T15:51:31.803Z,10.63
2023-03-06T15:54:11.235Z,9.73
2023-03-06T15:56:43.145Z,8.70
2023-03-06T15:59:17.949Z,9.80
2023-03-06T16:01:45.928Z,9.67
2023-03-06T16:04:14.009Z,8.73
2023-03-06T16:06:42.140Z,9.23
2023-03-06T16:09:10.935Z,8.80
2023-03-06T16:11:43.954Z,9.97
2023-03-06T16:14:21.285Z,9.37
2023-03-06T16:16:50.087Z,9.07
2023-03-06T16:19:28.182Z,9.43
2023-03-06T16:21:56.686Z,7.80
2023-03-06T16:24:26.007Z,8.60
2023-03-06T16:26:55.759Z,8.30
2023-03-06T16:29:27.250Z,8.47
2023-03-06T16:31:57.114Z,8.73
2023-03-06T16:34:25.509Z,8.27
2023-03-06T16:36:53.414Z,9.17
2023-03-06T16:39:22.992Z,9.07
2023-03-06T16:41:51.837Z,10.17
2023-03-06T16:44:19.830Z,9.10
2023-03-06T16:46:50.903Z,10.70
2023-03-06T16:49:20.640Z,10.57
2023-03-06T16:51:49.002Z,10.50
2023-03-06T16:54:17.122Z,11.23
2023-03-06T16:56:45.912Z,11.03
2023-03-06T16:59:13.962Z,11.30
2023-03-06T17:01:43.145Z,11.43
2023-03-06T17:04:12.870Z,11.63
2023-03-06T17:06:41.602Z,11.53
2023-03-06T17:09:10.924Z,10.80
2023-03-06T17:11:42.743Z,10.93
2023-03-06T17:14:10.667Z,11.40
2023-03-06T17:16:40.260Z,9.53
2023-03-06T17:19:08.810Z,10.00
2023-03-06T17:21:38.517Z,11.30
2023-03-06T17:24:07.378Z,10.97
2023-03-06T17:26:36.522Z,11.37
2023-03-06T17:29:06.857Z,10.87
2023-03-06T17:31:34.913Z,11.70
2023-03-06T17:34:02.804Z,12.33
2023-03-06T17:36:31.501Z,12.57
2023-03-06T17:39:02.143Z,12.83
2023-03-06T17:41:30.198Z,11.47
2023-03-06T17:43:58.846Z,11.37
2023-03-06T17:46:27.306Z,11.40
2023-03-06T17:48:56.415Z,11.87
2023-03-06T17:51:24.488Z,12.43
2023-03-06T17:53:53.285Z,12.07
2023-03-06T17:56:22.496Z,12.57
2023-03-06T17:58:50.424Z,12.07
2023-03-06T18:01:20.630Z,14.17
2023-03-06T18:03:50.725Z,12.17
2023-03-06T18:06:20.669Z,12.30
2023-03-06T18:08:51.031Z,12.83
2023-03-06T18:11:22.085Z,12.73
2023-03-06T18:13:50.027Z,10.70
2023-03-06T18:16:19.640Z,11.67
2023-03-06T18:18:48.281Z,12.13
2023-03-06T18:21:16.910Z,11.30
2023-03-06T18:23:44.941Z,10.20
2023-03-06T18:26:14.478Z,11.17
2023-03-06T18:28:45.486Z,11.13
2023-03-06T18:31:17.501Z,10.67
2023-03-06T18:33:45.565Z,10.23
2023-03-06T18:36:13.447Z,9.80
2023-03-06T18:38:43.853Z,10.77
2023-03-06T18:41:12.753Z,10.63
2023-03-06T18:43:41.123Z,10.27
2023-03-06T18:46:10.814Z,12.13
2023-03-06T18:48:39.428Z,11.93
2023-03-06T18:51:09.005Z,10.73
2023-03-06T18:53:37.622Z,10.53
2023-03-06T18:56:05.887Z,11.23
2023-03-06T18:58:33.924Z,11.40
2023-03-06T19:01:07.228Z,10.50
2023-03-06T19:03:36.645Z,10.93
2023-03-06T19:06:06.401Z,10.53
2023-03-06T19:08:34.973Z,10.73
2023-03-06T19:11:04.461Z,10.50
2023-03-06T19:13:32.767Z,11.07
2023-03-06T19:16:00.880Z,10.77
2023-03-06T19:18:30.138Z,10.30
2023-03-06T19:21:10.072Z,9.87
2023-03-06T19:23:39.404Z,9.70
2023-03-06T19:26:07.880Z,9.40
2023-03-06T19:28:36.945Z,10.23
2023-03-06T19:31:12.914Z,9.63
2023-03-06T19:33:41.635Z,10.33
2023-03-06T19:36:13.057Z,10.10
2023-03-06T19:38:41.345Z,10.47
2023-03-06T19:41:13.559Z,10.33
2023-03-06T19:43:42.177Z,10.13
2023-03-06T19:46:13.004Z,11.63
2023-03-06T19:48:41.079Z,10.57
2023-03-06T19:51:11.215Z,10.30
2023-03-06T19:53:39.861Z,10.90
2023-03-06T19:56:10.424Z,10.30
2023-03-06T19:58:40.495Z,9.90
2023-03-06T20:01:10.910Z,10.07
2023-03-06T20:03:39.132Z,10.40
2023-03-06T20:06:09.204Z,10.33
2023-03-06T20:08:38.611Z,9.77
2023-03-06T20:11:06.578Z,9.87
2023-03-06T20:13:34.479Z,9.70
2023-03-06T20:16:04.342Z,9.70
2023-03-06T20:18:32.246Z,9.53
2023-03-06T20:21:01.539Z,9.17
2023-03-06T20:23:29.738Z,10.10
2023-03-06T20:26:02.917Z,9.03
2023-03-06T20:28:31.080Z,9.17
2023-03-06T20:30:58.970Z,8.67
2023-03-06T20:33:27.843Z,9.33
2023-03-06T20:35:55.787Z,9.03
2023-03-06T20:38:23.739Z,9.37
2023-03-06T20:40:54.582Z,9.17
2023-03-06T20:43:23.847Z,8.80
2023-03-06T20:45:59.055Z,8.00
2023-03-06T20:48:27.081Z,9.73
2023-03-06T20:51:02.206Z,9.40
2023-03-06T20:53:30.153Z,8.50
2023-03-06T20:55:58.172Z,9.20
2023-03-06T20:58:30.145Z,9.97
2023-03-06T21:00:58.207Z,9.20
2023-03-06T21:03:26.362Z,8.63
2023-03-06T21:05:54.309Z,9.37
2023-03-06T21:08:22.201Z,10.23
2023-03-06T21:10:50.728Z,9.40
2023-03-06T21:13:18.939Z,9.63
2023-03-06T21:15:48.314Z,9.87
2023-03-06T21:18:16.239Z,9.60
2023-03-06T21:20:44.260Z,9.47
2023-03-06T21:23:12.225Z,10.33
2023-03-06T21:25:48.560Z,9.23
2023-03-06T21:28:16.626Z,10.73
2023-03-06T21:30:44.956Z,9.97
2023-03-06T21:33:15.999Z,10.67
2023-03-06T21:35:44.847Z,10.90
2023-03-06T21:38:14.077Z,10.97
2023-03-06T21:40:42.961Z,10.80
2023-03-06T21:43:11.085Z,10.03
2023-03-06T21:45:39.007Z,10.43
2023-03-06T21:48:07.366Z,11.10
2023-03-06T21:50:36.633Z,9.63
2023-03-06T21:53:04.601Z,10.47
2023-03-06T21:55:32.693Z,11.33
2023-03-06T21:58:00.644Z,10.70
2023-03-06T22:00:28.623Z,11.30
2023-03-06T22:02:57.167Z,11.17
2023-03-06T22:05:25.762Z,12.67
2023-03-06T22:07:55.021Z,12.43
2023-03-06T22:10:22.902Z,11.17
2023-03-06T22:12:50.901Z,12.43
2023-03-06T22:15:20.394Z,11.70
2023-03-06T22:17:48.675Z,12.87
2023-03-06T22:20:16.993Z,12.57
2023-03-06T22:22:44.884Z,11.30
2023-03-06T22:25:14.762Z,12.00
2023-03-06T22:27:42.713Z,11.80
2023-03-06T22:30:11.735Z,12.10
2023-03-06T22:32:39.668Z,11.80
2023-03-06T22:35:08.369Z,12.40
2023-03-06T22:37:36.393Z,12.70
2023-03-06T22:40:04.541Z,12.30
2023-03-06T22:42:34.168Z,12.23
2023-03-06T22:45:02.056Z,12.40
2023-03-06T22:47:29.945Z,11.77
2023-03-06T22:49:57.785Z,11.17
2023-03-06T22:52:25.707Z,11.30
2023-03-06T22:54:53.611Z,10.77
2023-03-06T22:57:23.613Z,10.27
2023-03-06T22:59:52.864Z,11.80
2023-03-06T23:02:20.712Z,11.43
2023-03-06T23:04:52.352Z,10.87
2023-03-06T23:07:20.468Z,10.70
2023-03-06T23:09:48.357Z,11.17
2023-03-06T23:12:16.271Z,10.67
2023-03-06T23:14:46.718Z,10.97
2023-03-06T23:17:16.041Z,10.37
2023-03-06T23:19:43.989Z,10.37
2023-03-06T23:22:12.254Z,9.33
2023-03-06T23:24:40.235Z,10.33
2023-03-06T23:27:08.227Z,10.67
2023-03-06T23:29:36.150Z,9.17
2023-03-06T23:32:04.364Z,9.00
2023-03-06T23:34:33.672Z,8.57
2023-03-06T23:37:01.718Z,8.53
2023-03-06T23:39:30.626Z,9.10
2023-03-06T23:41:58.485Z,8.70
2023-03-06T23:44:26.394Z,8.10
2023-03-06T23:46:54.328Z,8.30
2023-03-06T23:49:22.179Z,8.07
2023-03-06T23:51:51.357Z,8.33
2023-03-06T23:54:19.203Z,7.47
2023-03-06T23:56:47.073Z,6.57
2023-03-06T23:59:15.053Z,6.97
